Time,TemperatureF,DewpointF,PressureIn,WindDirection,WindDirectionDegrees,WindSpeedMPH,WindSpeedGustMPH,Humidity,HourlyPrecipIn,Conditions,Clouds,dailyrainin,SolarRadiationWatts/m^2,SoftwareType,DateUTC
2013-10-06 00:02:00,41.0,21.0,-100.00,North,353,4.0,6.0,45,0.00,,,0.00,0.000000,,2013-10-06 06:02:00,
2013-10-06 00:42:00,38.0,21.0,-100.00,North,7,7.0,9.0,49,0.00,,,-99.99,0.000000,,2013-10-06 06:42:00,
2013-10-06 00:52:00,38.0,21.0,-100.00,North,7,7.0,9.0,49,0.00,,,-99.99,0.000000,,2013-10-06 06:52:00,
2013-10-06 01:02:00,38.0,21.0,-100.00,North,7,7.0,9.0,49,0.00,,,-99.99,0.000000,,2013-10-06 07:02:00,
2013-10-06 01:42:00,39.0,20.0,-100.00,North,352,7.0,9.0,47,0.00,,,0.00,0.000000,,2013-10-06 07:42:00,
2013-10-06 01:52:00,39.0,20.0,-100.00,North,352,7.0,9.0,47,0.00,,,0.00,0.000000,,2013-10-06 07:52:00,
2013-10-06 02:02:00,39.0,20.0,-100.00,North,352,7.0,9.0,47,0.00,,,0.00,0.000000,,2013-10-06 08:02:00,
2013-10-06 02:42:00,38.0,21.0,-100.00,North,351,7.0,10.0,50,0.00,,,0.00,0.000000,,2013-10-06 08:42:00,
2013-10-06 02:53:00,38.0,21.0,-100.00,North,351,7.0,10.0,50,0.00,,,0.00,0.000000,,2013-10-06 08:53:00,
2013-10-06 03:01:00,38.0,21.0,-100.00,North,351,7.0,10.0,50,0.00,,,0.00,0.000000,,2013-10-06 09:01:00,
2013-10-06 03:43:00,40.0,21.0,-100.00,North,350,3.0,9.0,46,0.00,,,0.00,0.000000,,2013-10-06 09:43:00,
2013-10-06 03:53:00,40.0,21.0,-100.00,North,350,3.0,9.0,46,0.00,,,0.00,0.000000,,2013-10-06 09:53:00,
2013-10-06 04:03:00,40.0,21.0,-100.00,North,350,3.0,9.0,46,0.00,,,0.00,0.000000,,2013-10-06 10:03:00,
2013-10-06 04:43:00,40.0,22.0,-100.00,NNW,344,5.0,9.0,48,-99.99,,,0.00,0.000000,,2013-10-06 10:43:00,
2013-10-06 04:53:00,40.0,22.0,-100.00,NNW,344,5.0,9.0,48,-99.99,,,0.00,0.000000,,2013-10-06 10:53:00,
2013-10-06 05:02:00,40.0,22.0,-100.00,NNW,344,5.0,9.0,48,-99.99,,,0.00,0.000000,,2013-10-06 11:02:00,
2013-10-06 05:42:00,38.0,22.0,-100.00,North,349,6.0,9.0,52,-99.99,,,0.00,0.000000,,2013-10-06 11:42:00,
2013-10-06 06:42:00,40.0,23.0,-100.00,North,352,5.0,7.0,50,-99.99,,,0.00,0.000000,,2013-10-06 12:42:00,
2013-10-06 07:42:00,38.0,23.0,-100.00,NNW,344,6.0,8.0,55,-99.99,,,0.00,0.000000,,2013-10-06 13:42:00,
2013-10-06 08:52:00,39.0,23.0,-100.00,North,11,5.0,7.0,52,-99.99,,,0.00,5.000000,,2013-10-06 14:52:00,
2013-10-06 09:02:00,39.0,23.0,-100.00,North,11,5.0,7.0,52,-99.99,,,0.00,5.000000,,2013-10-06 15:02:00,
2013-10-06 12:43:00,53.0,25.0,-100.00,SSW,198,9.0,11.0,34,-99.99,,,0.00,675.000000,,2013-10-06 18:43:00,
2013-10-06 12:52:00,53.0,25.0,-100.00,SSW,198,9.0,11.0,34,-99.99,,,0.00,675.000000,,2013-10-06 18:52:00,
2013-10-06 13:01:00,53.0,25.0,-100.00,SSW,198,9.0,11.0,34,-99.99,,,0.00,675.000000,,2013-10-06 19:01:00,
2013-10-06 13:42:00,57.0,20.0,-100.00,SSW,196,9.0,16.0,23,0.00,,,0.00,774.000000,,2013-10-06 19:42:00,
2013-10-06 13:53:00,57.0,20.0,-100.00,SSW,196,9.0,16.0,23,0.00,,,0.00,774.000000,,2013-10-06 19:53:00,
2013-10-06 14:02:00,57.0,20.0,-100.00,SSW,196,9.0,16.0,23,0.00,,,0.00,774.000000,,2013-10-06 20:02:00,
2013-10-06 14:42:00,59.0,18.0,-100.00,SSW,202,10.0,19.0,20,0.00,,,0.00,809.000000,,2013-10-06 20:42:00,
2013-10-06 14:52:00,59.0,18.0,-100.00,SSW,202,10.0,19.0,20,0.00,,,0.00,809.000000,,2013-10-06 20:52:00,
2013-10-06 15:01:00,59.0,18.0,-100.00,SSW,202,10.0,19.0,20,0.00,,,0.00,809.000000,,2013-10-06 21:01:00,
2013-10-06 15:44:00,61.0,17.0,-100.00,SSW,194,12.0,18.0,18,0.00,,,0.00,762.000000,,2013-10-06 21:44:00,
2013-10-06 16:43:00,61.0,20.0,-100.00,SSW,192,11.0,19.0,20,0.00,,,0.00,639.000000,,2013-10-06 22:43:00,
2013-10-06 16:53:00,61.0,20.0,-100.00,SSW,192,11.0,19.0,20,0.00,,,0.00,639.000000,,2013-10-06 22:53:00,
2013-10-06 17:03:00,61.0,20.0,-100.00,SSW,192,11.0,19.0,20,0.00,,,0.00,639.000000,,2013-10-06 23:03:00,
2013-10-06 17:42:00,61.0,18.0,-100.00,SSW,196,10.0,15.0,19,0.00,,,0.00,497.000000,,2013-10-06 23:42:00,
2013-10-06 17:53:00,61.0,18.0,-100.00,SSW,196,10.0,15.0,19,0.00,,,0.00,497.000000,,2013-10-06 23:53:00,
2013-10-06 18:02:00,61.0,18.0,-100.00,SSW,196,10.0,15.0,19,0.00,,,0.00,497.000000,,2013-10-07 00:02:00,
2013-10-06 18:42:00,61.0,20.0,-100.00,SSW,201,8.0,16.0,20,0.00,,,0.00,329.000000,,2013-10-07 00:42:00,
2013-10-06 18:52:00,61.0,20.0,-100.00,SSW,201,8.0,16.0,20,0.00,,,0.00,329.000000,,2013-10-07 00:52:00,
2013-10-06 19:02:00,61.0,20.0,-100.00,SSW,201,8.0,16.0,20,0.00,,,0.00,329.000000,,2013-10-07 01:02:00,
2013-10-06 19:42:00,56.0,19.0,-100.00,South,186,6.0,12.0,23,0.00,,,0.00,115.000000,,2013-10-07 01:42:00,
2013-10-06 19:53:00,56.0,19.0,-100.00,South,186,6.0,12.0,23,0.00,,,0.00,115.000000,,2013-10-07 01:53:00,
2013-10-06 20:02:00,56.0,19.0,-100.00,South,186,6.0,12.0,23,0.00,,,0.00,115.000000,,2013-10-07 02:02:00,
2013-10-06 20:42:00,54.0,18.0,-100.00,East,81,4.0,10.0,24,0.00,,,0.00,1.000000,,2013-10-07 02:42:00,
2013-10-06 20:53:00,54.0,18.0,-100.00,East,81,4.0,10.0,24,0.00,,,0.00,1.000000,,2013-10-07 02:53:00,
2013-10-06 21:02:00,54.0,18.0,-100.00,East,81,4.0,10.0,24,0.00,,,0.00,1.000000,,2013-10-07 03:02:00,
2013-10-06 21:44:00,53.0,20.0,-100.00,NNE,32,6.0,7.0,27,-99.99,,,0.00,0.000000,,2013-10-07 03:44:00,
2013-10-06 22:44:00,52.0,19.0,-100.00,North,6,6.0,7.0,27,-99.99,,,0.00,0.000000,,2013-10-07 04:44:00,